sensor_id;sensor_type;location;lat;lon;timestamp;pressure;altitude;pressure_sealevel;temperature
66180;BMP280;52986;44.028;20.466;2023-09-19T00:02:12;98089.34;;;21.08
66180;BMP280;52986;44.028;20.466;2023-09-19T00:04:37;98090.13;;;21.03
66180;BMP280;52986;44.028;20.466;2023-09-19T00:07:05;98088.59;;;21.08
66180;BMP280;52986;44.028;20.466;2023-09-19T00:09:30;98091.56;;;21.10
66180;BMP280;52986;44.028;20.466;2023-09-19T00:12:02;98094.78;;;21.08
66180;BMP280;52986;44.028;20.466;2023-09-19T00:14:27;98093.69;;;21.17
66180;BMP280;52986;44.028;20.466;2023-09-19T00:16:53;98094.31;;;21.28
66180;BMP280;52986;44.028;20.466;2023-09-19T00:19:20;98088.34;;;21.30
66180;BMP280;52986;44.028;20.466;2023-09-19T00:21:45;98088.19;;;21.22
66180;BMP280;52986;44.028;20.466;2023-09-19T00:24:12;98080.59;;;21.15
66180;BMP280;52986;44.028;20.466;2023-09-19T00:26:39;98081.31;;;21.16
66180;BMP280;52986;44.028;20.466;2023-09-19T00:29:05;98081.16;;;21.08
66180;BMP280;52986;44.028;20.466;2023-09-19T00:31:34;98085.88;;;21.08
66180;BMP280;52986;44.028;20.466;2023-09-19T00:33:59;98078.72;;;21.05
66180;BMP280;52986;44.028;20.466;2023-09-19T00:36:31;98075.03;;;21.02
66180;BMP280;52986;44.028;20.466;2023-09-19T00:38:58;98080.25;;;21.00
66180;BMP280;52986;44.028;20.466;2023-09-19T00:41:24;98085.56;;;21.11
66180;BMP280;52986;44.028;20.466;2023-09-19T00:43:50;98090.22;;;21.16
66180;BMP280;52986;44.028;20.466;2023-09-19T00:46:19;98085.25;;;21.20
66180;BMP280;52986;44.028;20.466;2023-09-19T00:48:44;98090.66;;;21.26
66180;BMP280;52986;44.028;20.466;2023-09-19T00:51:11;98088.94;;;21.23
66180;BMP280;52986;44.028;20.466;2023-09-19T00:53:38;98088.13;;;21.28
66180;BMP280;52986;44.028;20.466;2023-09-19T00:56:04;98083.06;;;21.19
66180;BMP280;52986;44.028;20.466;2023-09-19T00:58:33;98089.28;;;21.14
66180;BMP280;52986;44.028;20.466;2023-09-19T01:01:01;98096.72;;;21.13
66180;BMP280;52986;44.028;20.466;2023-09-19T01:03:27;98097.53;;;21.03
66180;BMP280;52986;44.028;20.466;2023-09-19T01:05:52;98102.28;;;21.02
66180;BMP280;52986;44.028;20.466;2023-09-19T01:08:18;98107.72;;;21.02
66180;BMP280;52986;44.028;20.466;2023-09-19T01:10:50;98108.63;;;21.10
66180;BMP280;52986;44.028;20.466;2023-09-19T01:13:30;98107.03;;;21.20
66180;BMP280;52986;44.028;20.466;2023-09-19T01:18:55;98113.97;;;21.21
66180;BMP280;52986;44.028;20.466;2023-09-19T01:21:29;98103.19;;;21.10
66180;BMP280;52986;44.028;20.466;2023-09-19T01:27:03;98096.66;;;20.94
66180;BMP280;52986;44.028;20.466;2023-09-19T01:29:39;98096.31;;;21.04
66180;BMP280;52986;44.028;20.466;2023-09-19T01:32:06;98092.00;;;21.14
66180;BMP280;52986;44.028;20.466;2023-09-19T01:34:47;98091.16;;;21.00
66180;BMP280;52986;44.028;20.466;2023-09-19T01:37:14;98085.97;;;20.97
66180;BMP280;52986;44.028;20.466;2023-09-19T01:39:43;98094.31;;;21.04
66180;BMP280;52986;44.028;20.466;2023-09-19T01:42:31;98093.50;;;21.15
66180;BMP280;52986;44.028;20.466;2023-09-19T01:45:08;98093.31;;;21.07
66180;BMP280;52986;44.028;20.466;2023-09-19T01:48:30;98093.13;;;21.00
66180;BMP280;52986;44.028;20.466;2023-09-19T01:50:49;98088.25;;;20.92
66180;BMP280;52986;44.028;20.466;2023-09-19T01:53:27;98093.97;;;20.89
66180;BMP280;52986;44.028;20.466;2023-09-19T01:55:54;98087.81;;;20.88
66180;BMP280;52986;44.028;20.466;2023-09-19T01:58:45;98089.31;;;20.84
66180;BMP280;52986;44.028;20.466;2023-09-19T02:01:12;98084.19;;;20.75
66180;BMP280;52986;44.028;20.466;2023-09-19T02:03:40;98082.69;;;20.74
66180;BMP280;52986;44.028;20.466;2023-09-19T02:06:06;98071.09;;;20.73
66180;BMP280;52986;44.028;20.466;2023-09-19T02:08:36;98063.16;;;20.70
66180;BMP280;52986;44.028;20.466;2023-09-19T02:11:02;98066.94;;;20.67
66180;BMP280;52986;44.028;20.466;2023-09-19T02:13:27;98056.56;;;20.65
66180;BMP280;52986;44.028;20.466;2023-09-19T02:15:53;98044.25;;;20.58
66180;BMP280;52986;44.028;20.466;2023-09-19T02:18:19;98034.78;;;20.65
66180;BMP280;52986;44.028;20.466;2023-09-19T02:20:44;98030.25;;;20.73
66180;BMP280;52986;44.028;20.466;2023-09-19T02:23:11;98030.72;;;20.77
66180;BMP280;52986;44.028;20.466;2023-09-19T02:25:38;98026.25;;;20.74
66180;BMP280;52986;44.028;20.466;2023-09-19T02:28:04;98026.72;;;20.78
66180;BMP280;52986;44.028;20.466;2023-09-19T02:30:30;98015.03;;;20.83
66180;BMP280;52986;44.028;20.466;2023-09-19T02:32:56;98004.31;;;20.91
66180;BMP280;52986;44.028;20.466;2023-09-19T02:35:21;98004.16;;;20.83
66180;BMP280;52986;44.028;20.466;2023-09-19T02:37:48;98012.63;;;20.74
66180;BMP280;52986;44.028;20.466;2023-09-19T02:40:14;98020.28;;;20.76
66180;BMP280;52986;44.028;20.466;2023-09-19T02:42:53;98033.81;;;20.87
66180;BMP280;52986;44.028;20.466;2023-09-19T02:45:20;98036.78;;;20.89
66180;BMP280;52986;44.028;20.466;2023-09-19T02:47:46;98031.66;;;20.80
66180;BMP280;52986;44.028;20.466;2023-09-19T02:50:12;98037.41;;;20.76
66180;BMP280;52986;44.028;20.466;2023-09-19T02:52:38;98040.34;;;20.78
66180;BMP280;52986;44.028;20.466;2023-09-19T02:55:06;98038.34;;;20.79
66180;BMP280;52986;44.028;20.466;2023-09-19T02:57:34;98047.41;;;20.63
66180;BMP280;52986;44.028;20.466;2023-09-19T03:00:00;98042.72;;;20.57
66180;BMP280;52986;44.028;20.466;2023-09-19T03:02:26;98043.28;;;20.50
66180;BMP280;52986;44.028;20.466;2023-09-19T03:04:53;98042.13;;;20.46
66180;BMP280;52986;44.028;20.466;2023-09-19T03:07:18;98044.59;;;20.44
66180;BMP280;52986;44.028;20.466;2023-09-19T03:09:44;98034.91;;;20.48
66180;BMP280;52986;44.028;20.466;2023-09-19T03:12:10;98022.75;;;20.49
66180;BMP280;52986;44.028;20.466;2023-09-19T03:14:36;98020.00;;;20.55
66180;BMP280;52986;44.028;20.466;2023-09-19T03:17:01;98028.88;;;20.61
66180;BMP280;52986;44.028;20.466;2023-09-19T03:19:30;98026.63;;;20.65
66180;BMP280;52986;44.028;20.466;2023-09-19T03:21:56;98026.31;;;20.69
66180;BMP280;52986;44.028;20.466;2023-09-19T03:24:22;98021.34;;;20.73
66180;BMP280;52986;44.028;20.466;2023-09-19T03:26:48;98014.47;;;20.66
66180;BMP280;52986;44.028;20.466;2023-09-19T03:29:14;98015.81;;;20.54
66180;BMP280;52986;44.028;20.466;2023-09-19T03:31:41;98021.25;;;20.54
66180;BMP280;52986;44.028;20.466;2023-09-19T03:34:06;98017.78;;;20.53
66180;BMP280;52986;44.028;20.466;2023-09-19T03:36:35;98027.94;;;20.53
66180;BMP280;52986;44.028;20.466;2023-09-19T03:39:01;98024.25;;;20.50
66180;BMP280;52986;44.028;20.466;2023-09-19T03:41:27;98031.66;;;20.50
66180;BMP280;52986;44.028;20.466;2023-09-19T03:43:52;98045.06;;;20.48
66180;BMP280;52986;44.028;20.466;2023-09-19T03:46:18;98038.34;;;20.49
66180;BMP280;52986;44.028;20.466;2023-09-19T03:48:43;98040.56;;;20.50
66180;BMP280;52986;44.028;20.466;2023-09-19T03:51:10;98047.22;;;20.55
66180;BMP280;52986;44.028;20.466;2023-09-19T03:53:36;98035.84;;;20.56
66180;BMP280;52986;44.028;20.466;2023-09-19T03:56:01;98029.38;;;20.60
66180;BMP280;52986;44.028;20.466;2023-09-19T03:58:26;98019.50;;;20.56
66180;BMP280;52986;44.028;20.466;2023-09-19T04:00:55;98022.00;;;20.54
66180;BMP280;52986;44.028;20.466;2023-09-19T04:03:21;98027.22;;;20.52
66180;BMP280;52986;44.028;20.466;2023-09-19T04:05:46;98016.06;;;20.50
66180;BMP280;52986;44.028;20.466;2023-09-19T04:08:15;98020.03;;;20.49
66180;BMP280;52986;44.028;20.466;2023-09-19T04:10:43;98024.28;;;20.45
66180;BMP280;52986;44.028;20.466;2023-09-19T04:13:09;98023.06;;;20.46
66180;BMP280;52986;44.028;20.466;2023-09-19T04:15:35;98006.50;;;20.44
66180;BMP280;52986;44.028;20.466;2023-09-19T04:18:01;98019.06;;;20.52
66180;BMP280;52986;44.028;20.466;2023-09-19T04:20:28;98016.50;;;20.60
66180;BMP280;52986;44.028;20.466;2023-09-19T04:22:53;98015.00;;;20.65
66180;BMP280;52986;44.028;20.466;2023-09-19T04:25:20;98020.75;;;20.55
66180;BMP280;52986;44.028;20.466;2023-09-19T04:27:46;98022.25;;;20.51
66180;BMP280;52986;44.028;20.466;2023-09-19T04:30:11;98020.03;;;20.49
66180;BMP280;52986;44.028;20.466;2023-09-19T04:32:41;98021.53;;;20.50
66180;BMP280;52986;44.028;20.466;2023-09-19T04:35:07;98020.78;;;20.50
66180;BMP280;52986;44.028;20.466;2023-09-19T04:37:38;98023.06;;;20.46
66180;BMP280;52986;44.028;20.466;2023-09-19T04:40:06;98011.94;;;20.44
66180;BMP280;52986;44.028;20.466;2023-09-19T04:42:32;98015.19;;;20.37
66180;BMP280;52986;44.028;20.466;2023-09-19T04:44:57;98012.56;;;20.26
66180;BMP280;52986;44.028;20.466;2023-09-19T04:47:25;98010.16;;;20.22
66180;BMP280;52986;44.028;20.466;2023-09-19T04:49:50;98009.34;;;20.27
66180;BMP280;52986;44.028;20.466;2023-09-19T04:52:15;98010.00;;;20.39
66180;BMP280;52986;44.028;20.466;2023-09-19T04:54:41;98011.94;;;20.44
66180;BMP280;52986;44.028;20.466;2023-09-19T04:57:06;98024.75;;;20.49
66180;BMP280;52986;44.028;20.466;2023-09-19T04:59:32;98034.38;;;20.50
66180;BMP280;52986;44.028;20.466;2023-09-19T05:01:58;98029.72;;;20.45
66180;BMP280;52986;44.028;20.466;2023-09-19T05:04:24;98030.47;;;20.45
66180;BMP280;52986;44.028;20.466;2023-09-19T05:06:49;98039.06;;;20.55
66180;BMP280;52986;44.028;20.466;2023-09-19T05:09:16;98030.63;;;20.58
66180;BMP280;52986;44.028;20.466;2023-09-19T05:11:45;98024.84;;;20.68
66180;BMP280;52986;44.028;20.466;2023-09-19T05:14:11;98028.69;;;20.78
66180;BMP280;52986;44.028;20.466;2023-09-19T05:16:40;98027.69;;;20.81
66180;BMP280;52986;44.028;20.466;2023-09-19T05:19:05;98025.16;;;20.88
66180;BMP280;52986;44.028;20.466;2023-09-19T05:21:31;98013.69;;;20.96
66180;BMP280;52986;44.028;20.466;2023-09-19T05:23:56;98011.84;;;21.04
66180;BMP280;52986;44.028;20.466;2023-09-19T05:26:22;98017.00;;;21.07
66180;BMP280;52986;44.028;20.466;2023-09-19T05:28:47;98011.53;;;21.13
66180;BMP280;52986;44.028;20.466;2023-09-19T05:31:13;98016.91;;;21.18
66180;BMP280;52986;44.028;20.466;2023-09-19T05:33:39;98016.59;;;21.22
66180;BMP280;52986;44.028;20.466;2023-09-19T05:36:05;98024.63;;;21.14
66180;BMP280;52986;44.028;20.466;2023-09-19T05:38:30;98029.53;;;21.16
66180;BMP280;52986;44.028;20.466;2023-09-19T05:40:56;98025.81;;;21.19
66180;BMP280;52986;44.028;20.466;2023-09-19T05:43:21;98024.94;;;21.29
66180;BMP280;52986;44.028;20.466;2023-09-19T05:45:47;98026.78;;;21.40
66180;BMP280;52986;44.028;20.466;2023-09-19T05:48:14;98037.63;;;21.46
66180;BMP280;52986;44.028;20.466;2023-09-19T05:50:40;98041.09;;;21.46
66180;BMP280;52986;44.028;20.466;2023-09-19T05:53:06;98041.56;;;21.50
66180;BMP280;52986;44.028;20.466;2023-09-19T05:55:32;98047.47;;;21.54
66180;BMP280;52986;44.028;20.466;2023-09-19T05:57:58;98041.31;;;21.48
66180;BMP280;52986;44.028;20.466;2023-09-19T06:00:24;98049.50;;;21.48
66180;BMP280;52986;44.028;20.466;2023-09-19T06:02:52;98049.78;;;21.45
66180;BMP280;52986;44.028;20.466;2023-09-19T06:05:18;98045.66;;;21.38
66180;BMP280;52986;44.028;20.466;2023-09-19T06:07:43;98047.41;;;21.36
66180;BMP280;52986;44.028;20.466;2023-09-19T06:10:09;98048.13;;;21.36
66180;BMP280;52986;44.028;20.466;2023-09-19T06:12:39;98049.31;;;21.22
66180;BMP280;52986;44.028;20.466;2023-09-19T06:15:05;98045.09;;;21.21
66180;BMP280;52986;44.028;20.466;2023-09-19T06:17:31;98050.44;;;21.32
66180;BMP280;52986;44.028;20.466;2023-09-19T06:19:56;98046.09;;;21.42
66180;BMP280;52986;44.028;20.466;2023-09-19T06:22:22;98048.31;;;21.44
66180;BMP280;52986;44.028;20.466;2023-09-19T06:24:47;98056.66;;;21.51
66180;BMP280;52986;44.028;20.466;2023-09-19T06:27:13;98060.59;;;21.75
66180;BMP280;52986;44.028;20.466;2023-09-19T06:29:39;98053.81;;;22.13
66180;BMP280;52986;44.028;20.466;2023-09-19T06:32:08;98051.09;;;22.45
66180;BMP280;52986;44.028;20.466;2023-09-19T06:34:34;98053.13;;;22.71
66180;BMP280;52986;44.028;20.466;2023-09-19T06:36:59;98057.53;;;22.74
66180;BMP280;52986;44.028;20.466;2023-09-19T06:39:25;98059.03;;;23.01
66180;BMP280;52986;44.028;20.466;2023-09-19T06:41:51;98074.53;;;23.72
66180;BMP280;52986;44.028;20.466;2023-09-19T06:44:19;98082.88;;;26.47
66180;BMP280;52986;44.028;20.466;2023-09-19T06:46:47;98085.84;;;29.12
66180;BMP280;52986;44.028;20.466;2023-09-19T06:49:15;98092.81;;;30.59
66180;BMP280;52986;44.028;20.466;2023-09-19T06:51:41;98086.09;;;31.50
66180;BMP280;52986;44.028;20.466;2023-09-19T06:54:07;98091.59;;;31.00
66180;BMP280;52986;44.028;20.466;2023-09-19T06:56:32;98082.84;;;30.17
66180;BMP280;52986;44.028;20.466;2023-09-19T06:58:58;98088.41;;;28.83
66180;BMP280;52986;44.028;20.466;2023-09-19T07:01:23;98086.41;;;27.50
66180;BMP280;52986;44.028;20.466;2023-09-19T07:03:50;98079.47;;;26.94
66180;BMP280;52986;44.028;20.466;2023-09-19T07:06:15;98090.16;;;26.59
66180;BMP280;52986;44.028;20.466;2023-09-19T07:08:41;98112.56;;;27.91
66180;BMP280;52986;44.028;20.466;2023-09-19T07:11:06;98106.50;;;28.42
66180;BMP280;52986;44.028;20.466;2023-09-19T07:13:32;98106.13;;;27.96
66180;BMP280;52986;44.028;20.466;2023-09-19T07:15:58;98098.50;;;27.07
66180;BMP280;52986;44.028;20.466;2023-09-19T07:18:24;98100.09;;;26.40
66180;BMP280;52986;44.028;20.466;2023-09-19T07:20:50;98100.44;;;25.98
66180;BMP280;52986;44.028;20.466;2023-09-19T07:23:19;98106.22;;;26.93
66180;BMP280;52986;44.028;20.466;2023-09-19T07:25:48;98099.13;;;27.70
66180;BMP280;52986;44.028;20.466;2023-09-19T07:28:14;98105.03;;;27.92
66180;BMP280;52986;44.028;20.466;2023-09-19T07:30:39;98102.03;;;29.16
66180;BMP280;52986;44.028;20.466;2023-09-19T07:33:07;98107.31;;;28.87
66180;BMP280;52986;44.028;20.466;2023-09-19T07:35:32;98104.09;;;28.64
66180;BMP280;52986;44.028;20.466;2023-09-19T07:37:58;98099.19;;;30.42
66180;BMP280;52986;44.028;20.466;2023-09-19T07:40:27;98110.31;;;32.45
66180;BMP280;52986;44.028;20.466;2023-09-19T07:42:55;98084.00;;;34.55
66180;BMP280;52986;44.028;20.466;2023-09-19T07:45:20;98091.53;;;33.44
66180;BMP280;52986;44.028;20.466;2023-09-19T07:47:47;98089.97;;;35.68
66180;BMP280;52986;44.028;20.466;2023-09-19T07:50:13;98086.81;;;36.93
66180;BMP280;52986;44.028;20.466;2023-09-19T07:52:38;98086.47;;;37.49
66180;BMP280;52986;44.028;20.466;2023-09-19T07:55:08;98078.34;;;39.21
66180;BMP280;52986;44.028;20.466;2023-09-19T07:57:37;98090.72;;;39.77
66180;BMP280;52986;44.028;20.466;2023-09-19T08:00:03;98098.81;;;40.57
66180;BMP280;52986;44.028;20.466;2023-09-19T08:02:36;98099.53;;;41.09
66180;BMP280;52986;44.028;20.466;2023-09-19T08:05:03;98090.00;;;41.78
66180;BMP280;52986;44.028;20.466;2023-09-19T08:07:32;98090.31;;;41.92
66180;BMP280;52986;44.028;20.466;2023-09-19T08:09:57;98079.16;;;41.37
66180;BMP280;52986;44.028;20.466;2023-09-19T08:12:24;98081.28;;;41.98
66180;BMP280;52986;44.028;20.466;2023-09-19T08:14:49;98090.78;;;43.22
66180;BMP280;52986;44.028;20.466;2023-09-19T08:17:15;98085.75;;;43.62
66180;BMP280;52986;44.028;20.466;2023-09-19T08:19:41;98080.56;;;43.03
66180;BMP280;52986;44.028;20.466;2023-09-19T08:22:07;98082.22;;;40.68
66180;BMP280;52986;44.028;20.466;2023-09-19T08:24:35;98072.81;;;39.44
66180;BMP280;52986;44.028;20.466;2023-09-19T08:27:01;98086.50;;;38.56
66180;BMP280;52986;44.028;20.466;2023-09-19T08:29:29;98083.53;;;39.72
66180;BMP280;52986;44.028;20.466;2023-09-19T08:31:55;98094.13;;;41.45
66180;BMP280;52986;44.028;20.466;2023-09-19T08:34:22;98089.31;;;41.80
66180;BMP280;52986;44.028;20.466;2023-09-19T08:36:50;98068.31;;;39.57
66180;BMP280;52986;44.028;20.466;2023-09-19T08:39:16;98070.72;;;36.46
66180;BMP280;52986;44.028;20.466;2023-09-19T08:41:42;98074.09;;;34.52
66180;BMP280;52986;44.028;20.466;2023-09-19T08:44:07;98069.31;;;32.87
66180;BMP280;52986;44.028;20.466;2023-09-19T08:46:34;98080.50;;;31.00
66180;BMP280;52986;44.028;20.466;2023-09-19T08:49:05;98075.34;;;29.91
66180;BMP280;52986;44.028;20.466;2023-09-19T08:51:43;98075.97;;;29.09
66180;BMP280;52986;44.028;20.466;2023-09-19T08:56:48;98050.38;;;28.82
66180;BMP280;52986;44.028;20.466;2023-09-19T08:59:15;98057.09;;;28.88
66180;BMP280;52986;44.028;20.466;2023-09-19T09:01:42;98056.22;;;29.03
66180;BMP280;52986;44.028;20.466;2023-09-19T09:04:09;98057.03;;;29.23
66180;BMP280;52986;44.028;20.466;2023-09-19T09:06:38;98053.22;;;29.81
66180;BMP280;52986;44.028;20.466;2023-09-19T09:09:05;98056.81;;;30.11
66180;BMP280;52986;44.028;20.466;2023-09-19T09:11:33;98066.28;;;30.56
66180;BMP280;52986;44.028;20.466;2023-09-19T09:13:58;98059.31;;;31.34
66180;BMP280;52986;44.028;20.466;2023-09-19T09:16:24;98057.97;;;31.96
66180;BMP280;52986;44.028;20.466;2023-09-19T09:18:51;98061.63;;;32.53
66180;BMP280;52986;44.028;20.466;2023-09-19T09:21:20;98047.97;;;32.03
66180;BMP280;52986;44.028;20.466;2023-09-19T09:23:47;98052.66;;;31.58
66180;BMP280;52986;44.028;20.466;2023-09-19T09:26:12;98052.56;;;30.96
66180;BMP280;52986;44.028;20.466;2023-09-19T09:28:44;98050.34;;;31.14
66180;BMP280;52986;44.028;20.466;2023-09-19T09:31:23;98051.84;;;30.77
66180;BMP280;52986;44.028;20.466;2023-09-19T09:33:54;98062.81;;;32.50
66180;BMP280;52986;44.028;20.466;2023-09-19T09:36:36;98056.59;;;35.56
66180;BMP280;52986;44.028;20.466;2023-09-19T09:39:03;98044.72;;;37.89
66180;BMP280;52986;44.028;20.466;2023-09-19T09:41:41;98041.75;;;39.60
66180;BMP280;52986;44.028;20.466;2023-09-19T09:44:17;98045.44;;;40.85
66180;BMP280;52986;44.028;20.466;2023-09-19T09:46:45;98046.44;;;41.83
66180;BMP280;52986;44.028;20.466;2023-09-19T09:49:27;98040.34;;;42.62
66180;BMP280;52986;44.028;20.466;2023-09-19T09:52:06;98037.38;;;42.92
66180;BMP280;52986;44.028;20.466;2023-09-19T09:54:34;98040.31;;;43.44
66180;BMP280;52986;44.028;20.466;2023-09-19T09:57:04;98023.94;;;43.82
66180;BMP280;52986;44.028;20.466;2023-09-19T09:59:58;98031.56;;;43.26
66180;BMP280;52986;44.028;20.466;2023-09-19T10:02:31;98036.25;;;42.00
66180;BMP280;52986;44.028;20.466;2023-09-19T10:05:15;98031.31;;;41.37
66180;BMP280;52986;44.028;20.466;2023-09-19T10:07:41;98035.31;;;40.48
66180;BMP280;52986;44.028;20.466;2023-09-19T10:10:15;98029.19;;;40.56
66180;BMP280;52986;44.028;20.466;2023-09-19T10:12:47;98030.94;;;40.20
66180;BMP280;52986;44.028;20.466;2023-09-19T10:15:17;98034.94;;;40.34
66180;BMP280;52986;44.028;20.466;2023-09-19T10:17:46;98036.31;;;40.85
66180;BMP280;52986;44.028;20.466;2023-09-19T10:20:14;98029.06;;;41.31
66180;BMP280;52986;44.028;20.466;2023-09-19T10:23:10;98025.16;;;40.63
66180;BMP280;52986;44.028;20.466;2023-09-19T10:25:42;98020.53;;;39.77
66180;BMP280;52986;44.028;20.466;2023-09-19T10:28:09;98020.53;;;39.77
66180;BMP280;52986;44.028;20.466;2023-09-19T10:30:41;98007.75;;;39.93
66180;BMP280;52986;44.028;20.466;2023-09-19T10:33:08;98007.75;;;39.93
66180;BMP280;52986;44.028;20.466;2023-09-19T10:35:38;98003.75;;;39.79
66180;BMP280;52986;44.028;20.466;2023-09-19T10:38:06;98001.50;;;39.08
66180;BMP280;52986;44.028;20.466;2023-09-19T10:40:33;97997.59;;;39.17
66180;BMP280;52986;44.028;20.466;2023-09-19T10:43:05;98008.06;;;39.82
66180;BMP280;52986;44.028;20.466;2023-09-19T10:45:35;98005.84;;;39.78
66180;BMP280;52986;44.028;20.466;2023-09-19T10:48:01;98000.47;;;39.63
66180;BMP280;52986;44.028;20.466;2023-09-19T10:51:20;97993.75;;;40.19
66180;BMP280;52986;44.028;20.466;2023-09-19T10:53:20;97988.69;;;40.65
66180;BMP280;52986;44.028;20.466;2023-09-19T10:55:52;97976.28;;;39.75
66180;BMP280;52986;44.028;20.466;2023-09-19T10:58:26;97971.06;;;39.00
66180;BMP280;52986;44.028;20.466;2023-09-19T11:00:57;97970.91;;;38.75
66180;BMP280;52986;44.028;20.466;2023-09-19T11:03:38;97965.03;;;38.29
66180;BMP280;52986;44.028;20.466;2023-09-19T11:06:18;97961.13;;;37.99
66180;BMP280;52986;44.028;20.466;2023-09-19T11:09:02;97962.94;;;38.10
66180;BMP280;52986;44.028;20.466;2023-09-19T11:11:45;97957.25;;;37.20
66180;BMP280;52986;44.028;20.466;2023-09-19T11:30:44;97921.84;;;34.15
66180;BMP280;52986;44.028;20.466;2023-09-19T11:33:23;97918.53;;;33.94
66180;BMP280;52986;44.028;20.466;2023-09-19T11:46:29;97896.81;;;33.90
66180;BMP280;52986;44.028;20.466;2023-09-19T11:49:07;97894.88;;;33.93
66180;BMP280;52986;44.028;20.466;2023-09-19T11:51:40;97894.56;;;34.00
66180;BMP280;52986;44.028;20.466;2023-09-19T11:54:11;97897.31;;;33.87
66180;BMP280;52986;44.028;20.466;2023-09-19T11:56:51;97891.16;;;34.02
66180;BMP280;52986;44.028;20.466;2023-09-19T11:59:27;97901.03;;;34.44
66180;BMP280;52986;44.028;20.466;2023-09-19T12:01:56;97901.09;;;34.71
66180;BMP280;52986;44.028;20.466;2023-09-19T12:04:37;97894.41;;;34.23
66180;BMP280;52986;44.028;20.466;2023-09-19T12:07:23;97896.84;;;34.04
66180;BMP280;52986;44.028;20.466;2023-09-19T12:09:50;97893.88;;;33.63
66180;BMP280;52986;44.028;20.466;2023-09-19T12:12:27;97892.84;;;33.56
66180;BMP280;52986;44.028;20.466;2023-09-19T12:14:53;97899.94;;;33.59
66180;BMP280;52986;44.028;20.466;2023-09-19T12:17:19;97895.22;;;33.25
66180;BMP280;52986;44.028;20.466;2023-09-19T12:19:52;97887.91;;;32.83
66180;BMP280;52986;44.028;20.466;2023-09-19T12:22:17;97891.03;;;32.77
66180;BMP280;52986;44.028;20.466;2023-09-19T12:24:45;97882.84;;;32.68
66180;BMP280;52986;44.028;20.466;2023-09-19T12:27:12;97877.16;;;32.54
66180;BMP280;52986;44.028;20.466;2023-09-19T12:29:46;97879.47;;;32.58
66180;BMP280;52986;44.028;20.466;2023-09-19T12:32:11;97877.53;;;32.83
66180;BMP280;52986;44.028;20.466;2023-09-19T12:34:38;97881.38;;;32.78
66180;BMP280;52986;44.028;20.466;2023-09-19T12:37:11;97883.78;;;32.96
66180;BMP280;52986;44.028;20.466;2023-09-19T12:42:04;97890.53;;;33.04
66180;BMP280;52986;44.028;20.466;2023-09-19T12:44:35;97887.63;;;33.14
66180;BMP280;52986;44.028;20.466;2023-09-19T12:47:08;97882.44;;;33.08
66180;BMP280;52986;44.028;20.466;2023-09-19T12:49:34;97880.03;;;33.14
66180;BMP280;52986;44.028;20.466;2023-09-19T12:51:59;97875.47;;;32.49
66180;BMP280;52986;44.028;20.466;2023-09-19T12:54:37;97870.03;;;32.86
66180;BMP280;52986;44.028;20.466;2023-09-19T12:57:03;97872.34;;;32.78
66180;BMP280;52986;44.028;20.466;2023-09-19T12:59:30;97869.44;;;32.41
66180;BMP280;52986;44.028;20.466;2023-09-19T13:02:04;97862.31;;;32.50
66180;BMP280;52986;44.028;20.466;2023-09-19T13:04:38;97854.56;;;32.25
66180;BMP280;52986;44.028;20.466;2023-09-19T13:07:06;97858.19;;;31.83
66180;BMP280;52986;44.028;20.466;2023-09-19T13:09:34;97860.63;;;31.67
66180;BMP280;52986;44.028;20.466;2023-09-19T13:12:00;97869.78;;;31.37
66180;BMP280;52986;44.028;20.466;2023-09-19T13:14:28;97875.44;;;31.18
66180;BMP280;52986;44.028;20.466;2023-09-19T13:17:04;97873.09;;;30.93
66180;BMP280;52986;44.028;20.466;2023-09-19T13:19:47;97876.25;;;30.68
66180;BMP280;52986;44.028;20.466;2023-09-19T13:22:42;97876.31;;;30.49
66180;BMP280;52986;44.028;20.466;2023-09-19T13:25:12;97873.53;;;30.49
66180;BMP280;52986;44.028;20.466;2023-09-19T13:27:48;97877.53;;;30.26
66180;BMP280;52986;44.028;20.466;2023-09-19T13:30:16;97866.78;;;30.11
66180;BMP280;52986;44.028;20.466;2023-09-19T13:32:43;97891.66;;;29.73
66180;BMP280;52986;44.028;20.466;2023-09-19T13:35:09;97921.19;;;29.24
66180;BMP280;52986;44.028;20.466;2023-09-19T13:37:35;97942.16;;;28.74
66180;BMP280;52986;44.028;20.466;2023-09-19T13:40:08;97972.28;;;28.10
66180;BMP280;52986;44.028;20.466;2023-09-19T13:42:34;97993.00;;;27.45
66180;BMP280;52986;44.028;20.466;2023-09-19T13:45:00;98013.38;;;26.69
66180;BMP280;52986;44.028;20.466;2023-09-19T13:47:26;98003.41;;;26.03
66180;BMP280;52986;44.028;20.466;2023-09-19T13:49:52;98006.31;;;25.75
66180;BMP280;52986;44.028;20.466;2023-09-19T13:52:21;98015.59;;;25.57
66180;BMP280;52986;44.028;20.466;2023-09-19T13:54:51;98023.28;;;25.51
66180;BMP280;52986;44.028;20.466;2023-09-19T13:57:18;98009.19;;;25.47
66180;BMP280;52986;44.028;20.466;2023-09-19T13:59:43;97995.94;;;25.22
66180;BMP280;52986;44.028;20.466;2023-09-19T14:02:09;97985.34;;;25.26
66180;BMP280;52986;44.028;20.466;2023-09-19T14:04:34;97975.50;;;25.23
66180;BMP280;52986;44.028;20.466;2023-09-19T14:07:00;97984.66;;;25.49
66180;BMP280;52986;44.028;20.466;2023-09-19T14:09:26;97982.69;;;25.79
66180;BMP280;52986;44.028;20.466;2023-09-19T14:11:51;97998.28;;;26.15
66180;BMP280;52986;44.028;20.466;2023-09-19T14:14:21;98006.59;;;26.55
66180;BMP280;52986;44.028;20.466;2023-09-19T14:16:49;98015.38;;;26.76
66180;BMP280;52986;44.028;20.466;2023-09-19T14:19:16;98024.81;;;26.90
66180;BMP280;52986;44.028;20.466;2023-09-19T14:21:42;98043.44;;;27.15
66180;BMP280;52986;44.028;20.466;2023-09-19T14:24:08;98051.84;;;26.69
66180;BMP280;52986;44.028;20.466;2023-09-19T14:26:37;98059.03;;;26.42
66180;BMP280;52986;44.028;20.466;2023-09-19T14:29:03;98057.97;;;26.45
66180;BMP280;52986;44.028;20.466;2023-09-19T14:31:29;98068.22;;;26.22
66180;BMP280;52986;44.028;20.466;2023-09-19T14:33:55;98064.56;;;26.27
66180;BMP280;52986;44.028;20.466;2023-09-19T14:36:22;98061.63;;;26.02
66180;BMP280;52986;44.028;20.466;2023-09-19T14:38:52;98063.44;;;25.84
66180;BMP280;52986;44.028;20.466;2023-09-19T14:41:20;98069.22;;;25.58
66180;BMP280;52986;44.028;20.466;2023-09-19T14:43:46;98069.84;;;25.28